createdAt,value
2022-12-27T00:00:42.203Z,96.30
2022-12-27T00:01:45.362Z,96.30
2022-12-27T00:02:49.947Z,96.30
2022-12-27T00:03:54.399Z,96.30
2022-12-27T00:04:59.397Z,96.30
2022-12-27T00:06:06.227Z,96.30
2022-12-27T00:07:10.534Z,96.30
2022-12-27T00:08:14.265Z,96.30
2022-12-27T00:09:18.085Z,96.30
2022-12-27T00:10:21.090Z,96.30
2022-12-27T00:11:29.989Z,96.30
2022-12-27T00:12:33.373Z,96.30
2022-12-27T00:13:37.661Z,96.30
2022-12-27T00:14:40.666Z,96.30
2022-12-27T00:15:44.949Z,96.30
2022-12-27T00:16:47.760Z,96.30
2022-12-27T00:17:51.820Z,96.30
2022-12-27T00:18:56.661Z,96.30
2022-12-27T00:20:04.025Z,96.30
2022-12-27T00:21:13.463Z,96.30
2022-12-27T00:22:17.435Z,96.30
2022-12-27T00:23:21.800Z,96.30
2022-12-27T00:24:25.736Z,96.30
2022-12-27T00:25:28.516Z,96.30
2022-12-27T00:26:34.305Z,96.30
2022-12-27T00:27:37.659Z,96.30
2022-12-27T00:28:41.574Z,96.30
2022-12-27T00:29:45.346Z,96.30
2022-12-27T00:30:54.065Z,96.30
2022-12-27T00:31:57.929Z,96.30
2022-12-27T00:33:00.728Z,96.30
2022-12-27T00:34:08.395Z,96.30
2022-12-27T00:35:11.154Z,96.30
2022-12-27T00:36:19.162Z,96.30
2022-12-27T00:37:22.088Z,96.30
2022-12-27T00:38:25.773Z,96.30
2022-12-27T00:39:28.639Z,96.30
2022-12-27T00:40:34.939Z,96.30
2022-12-27T00:41:37.872Z,96.30
2022-12-27T00:42:43.589Z,96.30
2022-12-27T00:43:47.476Z,96.30
2022-12-27T00:44:51.376Z,96.30
2022-12-27T00:45:54.327Z,96.30
2022-12-27T00:46:58.582Z,96.30
2022-12-27T00:48:01.232Z,96.30
2022-12-27T00:49:06.238Z,96.30
2022-12-27T00:50:09.641Z,96.30
2022-12-27T00:51:17.321Z,96.30
2022-12-27T00:52:19.935Z,96.30
2022-12-27T00:53:23.709Z,96.30
2022-12-27T00:54:26.653Z,96.30
2022-12-27T00:55:30.254Z,96.30
2022-12-27T00:56:32.812Z,96.30
2022-12-27T00:57:36.674Z,96.30
2022-12-27T00:58:41.055Z,96.30
2022-12-27T00:59:44.981Z,96.30
2022-12-27T01:00:47.970Z,96.30
2022-12-27T01:01:51.938Z,96.30
2022-12-27T01:02:54.657Z,96.30
2022-12-27T01:04:05.414Z,96.30
2022-12-27T01:05:49.327Z,96.30
2022-12-27T01:06:55.587Z,96.30
2022-12-27T01:09:25.600Z,96.30
2022-12-27T01:10:28.202Z,96.30
2022-12-27T01:11:32.865Z,96.30
2022-12-27T01:12:36.357Z,96.30
2022-12-27T01:13:41.335Z,96.30
2022-12-27T01:14:45.077Z,96.30
2022-12-27T01:15:48.031Z,96.30
2022-12-27T01:16:51.787Z,96.30
2022-12-27T01:17:54.809Z,96.30
2022-12-27T01:18:59.594Z,96.30
2022-12-27T01:20:02.599Z,96.30
2022-12-27T01:21:09.027Z,96.30
2022-12-27T01:22:11.694Z,96.30
2022-12-27T01:23:15.538Z,96.30
2022-12-27T01:24:18.159Z,96.30
2022-12-27T01:25:21.917Z,96.30
2022-12-27T01:26:24.936Z,96.30
2022-12-27T01:27:31.841Z,96.30
2022-12-27T01:28:35.002Z,96.30
2022-12-27T01:29:38.738Z,96.30
2022-12-27T01:30:41.403Z,96.30
2022-12-27T01:31:45.192Z,96.30
2022-12-27T01:32:48.103Z,96.30
2022-12-27T01:33:56.692Z,96.30
2022-12-27T01:34:59.470Z,96.30
2022-12-27T01:36:13.089Z,96.30
2022-12-27T01:37:15.787Z,96.30
2022-12-27T01:38:19.330Z,96.30
2022-12-27T01:39:22.289Z,96.30
2022-12-27T01:40:27.111Z,96.30
2022-12-27T01:41:52.356Z,96.30
2022-12-27T01:42:56.616Z,96.30
2022-12-27T01:43:59.904Z,96.30
2022-12-27T01:45:04.491Z,96.30
2022-12-27T01:46:07.403Z,96.30
2022-12-27T01:47:20.805Z,96.30
2022-12-27T01:48:26.485Z,96.30
2022-12-27T01:49:29.234Z,96.30
2022-12-27T01:50:37.329Z,96.30
2022-12-27T01:51:41.314Z,96.30
2022-12-27T01:52:52.190Z,96.30
2022-12-27T01:53:56.018Z,96.30
2022-12-27T01:55:06.155Z,96.30
2022-12-27T01:56:14.442Z,96.30
2022-12-27T01:57:17.997Z,96.30
2022-12-27T01:58:27.987Z,96.30
2022-12-27T01:59:31.448Z,96.30
2022-12-27T02:00:35.548Z,96.30
2022-12-27T02:01:44.389Z,96.30
2022-12-27T02:02:48.864Z,96.30
2022-12-27T02:03:58.261Z,96.30
2022-12-27T02:05:01.240Z,96.30
2022-12-27T02:06:09.061Z,96.30
2022-12-27T02:07:14.241Z,96.30
2022-12-27T02:08:39.760Z,96.30
2022-12-27T02:09:50.211Z,96.30
2022-12-27T02:10:54.880Z,96.30
2022-12-27T02:11:59.790Z,96.30
2022-12-27T02:13:06.574Z,96.30
2022-12-27T02:14:11.425Z,96.30
2022-12-27T02:15:15.221Z,96.30
2022-12-27T02:16:19.846Z,96.30
2022-12-27T02:17:27.285Z,96.30
2022-12-27T02:18:30.056Z,96.30
2022-12-27T02:19:51.848Z,96.30
2022-12-27T02:21:43.888Z,96.30
2022-12-27T02:24:13.660Z,96.30
2022-12-27T02:25:37.258Z,96.30
2022-12-27T02:27:03.659Z,96.30
2022-12-27T02:28:25.240Z,96.30
2022-12-27T02:29:53.735Z,96.30
2022-12-27T02:31:04.012Z,96.30
2022-12-27T02:32:12.248Z,96.30
2022-12-27T02:33:21.951Z,96.30
2022-12-27T02:34:30.441Z,96.30
2022-12-27T02:35:39.289Z,96.30
2022-12-27T02:36:46.717Z,96.30
2022-12-27T02:37:57.125Z,96.30
2022-12-27T02:39:02.476Z,96.30
2022-12-27T02:40:30.829Z,96.30
2022-12-27T02:41:54.146Z,96.30
2022-12-27T02:43:15.574Z,96.30
2022-12-27T02:44:38.512Z,96.30
2022-12-27T02:46:10.315Z,96.30
2022-12-27T02:47:39.052Z,96.30
2022-12-27T02:49:11.511Z,96.30
2022-12-27T02:50:34.568Z,96.30
2022-12-27T02:52:13.883Z,96.30
2022-12-27T02:53:29.558Z,96.30
2022-12-27T02:55:04.476Z,96.30
2022-12-27T02:56:41.348Z,96.30
2022-12-27T02:57:57.968Z,96.30
2022-12-27T02:59:24.248Z,96.30
2022-12-27T03:00:48.880Z,96.30
2022-12-27T03:02:25.619Z,96.30
2022-12-27T03:03:52.047Z,96.30
2022-12-27T03:05:15.896Z,96.30
2022-12-27T03:06:48.967Z,96.30
2022-12-27T03:08:04.165Z,96.30
2022-12-27T03:09:55.480Z,96.30
2022-12-27T03:11:19.339Z,96.30
2022-12-27T03:12:57.645Z,96.30
2022-12-27T03:14:29.622Z,96.30
2022-12-27T03:15:58.962Z,96.30
2022-12-27T03:17:08.591Z,96.30
2022-12-27T03:18:23.654Z,96.30
2022-12-27T03:20:06.465Z,96.30
2022-12-27T03:21:33.115Z,96.30
2022-12-27T03:22:57.754Z,96.30
2022-12-27T03:24:31.684Z,96.30
2022-12-27T03:25:37.245Z,96.30
2022-12-27T03:26:46.131Z,96.30
2022-12-27T03:28:12.320Z,96.30
2022-12-27T03:29:38.421Z,96.30
2022-12-27T03:31:00.189Z,96.30
2022-12-27T03:32:29.193Z,96.30
2022-12-27T03:33:34.911Z,96.30
2022-12-27T03:34:41.608Z,96.30
2022-12-27T03:36:06.070Z,96.30
2022-12-27T03:37:31.774Z,96.30
2022-12-27T03:38:43.518Z,96.30
2022-12-27T03:39:55.042Z,96.30
2022-12-27T03:41:19.641Z,96.30
2022-12-27T03:42:45.809Z,96.30
2022-12-27T03:43:51.703Z,96.30
2022-12-27T03:44:54.751Z,96.30
2022-12-27T03:46:20.865Z,96.30
2022-12-27T03:47:34.703Z,96.30
2022-12-27T03:48:51.415Z,96.30
2022-12-27T03:50:04.734Z,96.30
2022-12-27T03:51:09.101Z,96.30
2022-12-27T03:52:18.662Z,96.30
2022-12-27T03:53:26.862Z,96.30
2022-12-27T03:54:35.796Z,96.30
2022-12-27T03:55:39.089Z,96.30
2022-12-27T03:56:43.071Z,96.30
2022-12-27T03:57:46.081Z,96.30
2022-12-27T03:58:50.042Z,96.30
2022-12-27T03:59:53.018Z,96.30
2022-12-27T04:00:56.872Z,96.30
2022-12-27T04:02:01.644Z,96.30
2022-12-27T04:03:06.901Z,96.30
2022-12-27T04:04:09.702Z,96.30
2022-12-27T04:05:13.574Z,96.30
2022-12-27T04:06:16.347Z,96.30
2022-12-27T04:07:20.086Z,96.30
2022-12-27T04:08:42.843Z,96.30
2022-12-27T04:10:04.009Z,96.30
2022-12-27T04:11:25.048Z,96.30
2022-12-27T04:12:46.134Z,96.30
2022-12-27T04:14:07.418Z,96.30
2022-12-27T04:15:29.399Z,96.30
2022-12-27T04:16:50.277Z,96.30
2022-12-27T04:18:11.465Z,96.30
2022-12-27T04:19:34.169Z,96.30
2022-12-27T04:20:55.409Z,96.30
2022-12-27T04:22:16.731Z,96.30
2022-12-27T04:23:38.031Z,96.30
2022-12-27T04:24:59.174Z,96.30
2022-12-27T04:26:20.044Z,96.30
2022-12-27T04:27:41.161Z,96.30
2022-12-27T04:29:11.869Z,96.30
2022-12-27T04:30:33.466Z,96.30
2022-12-27T04:31:54.677Z,96.30
2022-12-27T04:33:15.893Z,96.30
2022-12-27T04:34:38.414Z,96.30
2022-12-27T04:35:41.996Z,96.30
2022-12-27T04:36:44.752Z,96.30
2022-12-27T04:37:48.490Z,96.30
2022-12-27T04:38:52.277Z,96.30
2022-12-27T04:40:09.806Z,96.30
2022-12-27T04:41:30.667Z,96.30
2022-12-27T04:42:52.039Z,96.30
2022-12-27T04:44:13.340Z,96.30
2022-12-27T04:45:34.542Z,96.30
2022-12-27T04:46:55.493Z,96.30
2022-12-27T04:48:25.293Z,96.30
2022-12-27T04:49:48.145Z,96.30
2022-12-27T04:51:09.284Z,96.30
2022-12-27T04:52:34.998Z,96.30
2022-12-27T04:53:56.172Z,96.30
2022-12-27T04:55:02.379Z,96.30
2022-12-27T04:56:07.079Z,96.30
2022-12-27T04:57:11.071Z,96.30
2022-12-27T04:58:13.784Z,96.30
2022-12-27T04:59:35.026Z,96.30
2022-12-27T05:00:52.654Z,96.30
2022-12-27T05:02:05.567Z,96.30
2022-12-27T05:03:13.026Z,96.30
2022-12-27T05:04:16.815Z,96.30
2022-12-27T05:05:21.768Z,96.30
2022-12-27T05:06:25.539Z,96.30
2022-12-27T05:07:47.482Z,96.30
2022-12-27T05:09:09.066Z,96.30
2022-12-27T05:10:30.565Z,96.30
2022-12-27T05:11:51.908Z,96.30
2022-12-27T05:13:13.170Z,96.30
2022-12-27T05:14:17.851Z,96.30
2022-12-27T05:15:20.731Z,96.30
2022-12-27T05:16:36.148Z,96.30
2022-12-27T05:17:38.828Z,96.30
2022-12-27T05:18:42.621Z,96.30
2022-12-27T05:19:45.242Z,96.30
2022-12-27T05:20:50.591Z,96.30
2022-12-27T05:22:07.953Z,96.30
2022-12-27T05:23:28.978Z,96.30
2022-12-27T05:24:50.429Z,96.30
2022-12-27T05:25:54.300Z,96.30
2022-12-27T05:26:57.494Z,96.30
2022-12-27T05:28:01.159Z,96.30
2022-12-27T05:29:04.287Z,96.30
2022-12-27T05:30:09.679Z,96.30
2022-12-27T05:31:12.331Z,96.30
2022-12-27T05:32:15.999Z,96.30
2022-12-27T05:33:18.637Z,96.30
2022-12-27T05:34:22.363Z,96.30
2022-12-27T05:35:25.515Z,96.30
2022-12-27T05:36:30.782Z,96.30
2022-12-27T05:37:33.439Z,96.30
2022-12-27T05:38:37.277Z,96.30
2022-12-27T05:39:40.212Z,96.30
2022-12-27T05:40:44.000Z,96.30
2022-12-27T05:41:46.863Z,96.30
2022-12-27T05:42:50.868Z,96.30
2022-12-27T05:43:54.747Z,96.30
2022-12-27T05:44:57.427Z,96.30
2022-12-27T05:46:06.881Z,96.30
2022-12-27T05:47:09.758Z,96.30
2022-12-27T05:48:13.472Z,96.30
2022-12-27T05:49:16.137Z,96.30
2022-12-27T05:50:19.882Z,96.30
2022-12-27T05:51:26.361Z,96.30
2022-12-27T05:52:33.909Z,96.30
2022-12-27T05:53:41.008Z,96.30
2022-12-27T05:54:43.573Z,96.30
2022-12-27T05:55:55.182Z,96.30
2022-12-27T05:56:57.890Z,96.30
2022-12-27T05:58:01.685Z,96.30
2022-12-27T05:59:04.739Z,96.30
2022-12-27T06:00:10.470Z,96.30
2022-12-27T06:01:17.843Z,96.30
2022-12-27T06:02:21.772Z,96.30
2022-12-27T06:03:25.048Z,96.30
2022-12-27T06:04:29.026Z,96.30
2022-12-27T06:05:31.808Z,96.30
2022-12-27T06:06:36.017Z,96.30
2022-12-27T06:07:40.477Z,96.30
2022-12-27T06:08:44.178Z,96.30
2022-12-27T06:09:46.894Z,96.30
2022-12-27T06:10:50.566Z,96.30
2022-12-27T06:11:53.149Z,96.30
2022-12-27T06:12:56.900Z,96.30
2022-12-27T06:14:00.376Z,96.30
2022-12-27T06:15:04.789Z,96.30
2022-12-27T06:16:10.380Z,96.30
2022-12-27T06:17:17.004Z,96.30
2022-12-27T06:18:19.868Z,96.30
2022-12-27T06:19:23.611Z,96.30
2022-12-27T06:20:26.502Z,96.30
2022-12-27T06:21:30.340Z,96.30
2022-12-27T06:22:33.004Z,96.30
2022-12-27T06:23:40.313Z,96.30
2022-12-27T06:24:42.950Z,96.30
2022-12-27T06:25:46.570Z,96.30
2022-12-27T06:26:49.163Z,96.30
2022-12-27T06:27:52.654Z,96.30
2022-12-27T06:28:56.880Z,96.30
2022-12-27T06:30:00.439Z,96.30
2022-12-27T06:31:03.701Z,96.30
2022-12-27T06:32:07.428Z,96.30
2022-12-27T06:33:09.963Z,96.30
2022-12-27T06:34:13.685Z,96.30
2022-12-27T06:35:17.056Z,96.30
2022-12-27T06:36:24.394Z,96.30
2022-12-27T06:37:27.150Z,96.30
2022-12-27T06:38:30.890Z,96.30
2022-12-27T06:39:34.873Z,96.30
2022-12-27T06:40:38.578Z,96.30
2022-12-27T06:41:41.091Z,96.30
2022-12-27T06:42:44.816Z,96.30
2022-12-27T06:43:48.415Z,96.30
2022-12-27T06:44:52.163Z,96.30
2022-12-27T06:45:59.245Z,96.30
2022-12-27T06:47:03.294Z,96.30
2022-12-27T06:48:06.864Z,96.30
2022-12-27T06:49:12.225Z,96.30
2022-12-27T06:50:15.161Z,96.30
2022-12-27T06:51:21.451Z,96.30
2022-12-27T06:52:24.158Z,96.30
2022-12-27T06:53:27.925Z,96.30
2022-12-27T06:54:30.587Z,96.30
2022-12-27T06:55:36.366Z,96.30
2022-12-27T06:56:38.978Z,96.30
2022-12-27T06:57:42.966Z,96.30
2022-12-27T06:58:46.381Z,96.30
2022-12-27T06:59:54.012Z,96.30
2022-12-27T07:00:56.958Z,96.30
2022-12-27T07:02:01.102Z,96.30
2022-12-27T07:03:04.755Z,96.30
2022-12-27T07:04:08.586Z,96.30
2022-12-27T07:05:11.331Z,96.30
2022-12-27T07:06:14.986Z,96.30
2022-12-27T07:07:18.692Z,96.30
2022-12-27T07:08:21.215Z,96.30
2022-12-27T07:09:26.941Z,96.30
2022-12-27T07:10:30.664Z,96.30
2022-12-27T07:11:37.819Z,96.30
2022-12-27T07:12:40.725Z,96.30
2022-12-27T07:13:49.013Z,96.30
2022-12-27T07:14:52.690Z,96.30
2022-12-27T07:15:55.537Z,96.30
2022-12-27T07:16:59.196Z,96.30
2022-12-27T07:18:01.945Z,96.30
2022-12-27T07:19:06.058Z,96.30
2022-12-27T07:20:11.281Z,96.30
2022-12-27T07:21:16.470Z,96.30
2022-12-27T07:22:21.586Z,96.30
2022-12-27T07:23:24.213Z,96.30
2022-12-27T07:24:27.929Z,96.30
2022-12-27T07:25:31.090Z,96.30
2022-12-27T07:26:36.238Z,96.30
2022-12-27T07:27:38.989Z,96.30
2022-12-27T07:28:43.279Z,96.30
2022-12-27T07:29:46.066Z,96.30
2022-12-27T07:30:49.635Z,96.30
2022-12-27T07:31:53.349Z,96.30
2022-12-27T07:32:56.235Z,96.30
2022-12-27T07:34:01.998Z,96.30
2022-12-27T07:35:05.811Z,96.30
2022-12-27T07:36:13.666Z,96.30
2022-12-27T07:37:18.359Z,96.30
2022-12-27T07:38:22.108Z,96.30
2022-12-27T07:39:25.667Z,96.30
2022-12-27T07:40:28.325Z,96.30
2022-12-27T07:41:48.649Z,96.30
2022-12-27T07:42:51.277Z,96.30
2022-12-27T07:43:55.201Z,96.30
2022-12-27T07:44:57.751Z,96.30
2022-12-27T07:46:06.325Z,96.30
2022-12-27T07:47:10.528Z,96.30
2022-12-27T07:48:13.165Z,96.30
2022-12-27T07:49:18.033Z,96.30
2022-12-27T07:50:20.897Z,96.30
2022-12-27T07:51:25.688Z,96.30
2022-12-27T07:52:28.352Z,96.30
2022-12-27T07:53:33.289Z,96.30
2022-12-27T07:54:48.747Z,96.30
2022-12-27T07:55:51.456Z,96.30
2022-12-27T07:56:56.480Z,96.30
2022-12-27T07:57:59.695Z,96.30
2022-12-27T07:59:04.268Z,96.30
2022-12-27T08:00:09.006Z,96.30
2022-12-27T08:01:21.362Z,96.30
2022-12-27T08:02:24.169Z,96.30
2022-12-27T08:03:28.010Z,96.30
2022-12-27T08:04:32.299Z,96.30
2022-12-27T08:05:35.785Z,96.30
2022-12-27T08:06:38.326Z,96.30
2022-12-27T08:07:43.153Z,96.30
2022-12-27T08:08:46.551Z,96.30
2022-12-27T08:09:50.719Z,96.30
2022-12-27T08:10:54.465Z,96.30
2022-12-27T08:11:58.356Z,96.30
2022-12-27T08:13:04.185Z,96.30
2022-12-27T08:14:06.871Z,96.30
2022-12-27T08:15:12.856Z,96.30
2022-12-27T08:16:20.650Z,96.30
2022-12-27T08:17:28.316Z,96.30
2022-12-27T08:18:32.350Z,96.30
2022-12-27T08:19:35.873Z,96.30
2022-12-27T08:20:39.496Z,96.30
2022-12-27T08:21:42.002Z,96.30
2022-12-27T08:22:45.635Z,96.30
2022-12-27T08:23:48.253Z,96.30
2022-12-27T08:24:52.001Z,96.30
2022-12-27T08:25:54.741Z,96.30
2022-12-27T08:27:00.132Z,96.30
2022-12-27T08:28:08.077Z,96.30
2022-12-27T08:29:11.680Z,96.30
2022-12-27T08:30:14.735Z,96.30
2022-12-27T08:31:18.400Z,96.30
2022-12-27T08:32:21.936Z,96.30
2022-12-27T08:33:35.587Z,96.30
2022-12-27T08:34:38.522Z,96.30
2022-12-27T08:35:58.851Z,96.30
2022-12-27T08:37:02.536Z,96.30
2022-12-27T08:38:05.341Z,96.30
2022-12-27T08:39:09.508Z,96.30
2022-12-27T08:40:13.683Z,96.30
2022-12-27T08:41:21.254Z,96.30
2022-12-27T08:42:27.191Z,96.30
2022-12-27T08:43:30.144Z,96.30
2022-12-27T08:44:33.988Z,96.30
2022-12-27T08:45:37.621Z,96.30
2022-12-27T08:46:41.836Z,96.30
2022-12-27T08:47:46.686Z,96.30
2022-12-27T08:48:51.047Z,96.30
2022-12-27T08:49:53.884Z,96.30
2022-12-27T08:50:57.705Z,96.30
2022-12-27T08:52:00.586Z,96.30
2022-12-27T08:53:07.044Z,96.30
2022-12-27T08:54:10.297Z,96.30
2022-12-27T08:55:14.243Z,96.30
2022-12-27T08:56:16.924Z,96.30
2022-12-27T08:57:20.823Z,96.30
2022-12-27T08:58:25.167Z,96.30
2022-12-27T08:59:29.133Z,96.30
2022-12-27T09:00:33.220Z,96.30
2022-12-27T09:01:37.245Z,96.30
2022-12-27T09:02:40.246Z,96.30
2022-12-27T09:03:44.055Z,96.30
2022-12-27T09:04:47.637Z,96.30
2022-12-27T09:05:51.552Z,96.30
2022-12-27T09:06:54.312Z,96.30
2022-12-27T09:07:59.342Z,96.30
2022-12-27T09:09:02.237Z,96.30
2022-12-27T09:10:07.550Z,96.30
2022-12-27T09:11:12.781Z,96.30
2022-12-27T09:12:16.471Z,96.30
2022-12-27T09:13:20.615Z,96.30
2022-12-27T09:14:26.162Z,96.30
2022-12-27T09:15:29.203Z,96.30
2022-12-27T09:16:35.820Z,96.30
2022-12-27T09:17:38.905Z,96.30
2022-12-27T09:18:44.375Z,96.30
2022-12-27T09:19:48.923Z,96.30
2022-12-27T09:20:51.680Z,96.10
2022-12-27T09:21:55.358Z,96.10
2022-12-27T09:22:59.994Z,95.80
2022-12-27T09:24:04.385Z,95.70
2022-12-27T09:25:08.665Z,95.20
2022-12-27T09:26:15.269Z,95.40
2022-12-27T09:27:18.035Z,95.70
2022-12-27T09:28:21.881Z,95.90
2022-12-27T09:29:27.071Z,95.60
2022-12-27T09:30:29.921Z,95.40
2022-12-27T09:31:34.152Z,95.50
2022-12-27T09:32:37.217Z,95.60
2022-12-27T09:33:41.330Z,96.00
2022-12-27T09:34:44.582Z,96.10
2022-12-27T09:35:48.371Z,96.30
2022-12-27T09:36:51.364Z,96.30
2022-12-27T09:37:55.237Z,96.20
2022-12-27T09:39:00.555Z,96.30
2022-12-27T09:40:04.737Z,96.30
2022-12-27T09:41:40.877Z,96.30
2022-12-27T09:43:09.531Z,96.30
2022-12-27T09:44:21.612Z,96.30
2022-12-27T09:45:38.427Z,96.30
2022-12-27T09:46:49.487Z,96.30
2022-12-27T09:48:02.873Z,96.30
2022-12-27T09:49:10.285Z,96.30
2022-12-27T09:50:17.851Z,96.30
2022-12-27T09:51:28.256Z,96.30
2022-12-27T09:52:37.472Z,96.30
2022-12-27T09:53:47.691Z,96.30
2022-12-27T09:55:05.142Z,96.30
2022-12-27T09:56:12.502Z,96.30
2022-12-27T09:57:22.550Z,96.30
2022-12-27T09:58:42.607Z,96.30
2022-12-27T09:59:49.203Z,96.30
2022-12-27T10:00:54.578Z,96.30
2022-12-27T10:01:57.615Z,96.30
2022-12-27T10:03:06.012Z,96.30
2022-12-27T10:04:14.854Z,96.30
2022-12-27T10:05:23.094Z,96.30
2022-12-27T10:06:58.313Z,96.30
2022-12-27T10:08:25.386Z,96.30
2022-12-27T10:09:56.145Z,96.30
2022-12-27T10:11:08.498Z,96.30
2022-12-27T10:12:48.672Z,96.30
2022-12-27T10:13:59.241Z,96.30
2022-12-27T10:15:17.354Z,96.30
2022-12-27T10:16:32.768Z,96.30
2022-12-27T10:17:53.554Z,96.30
2022-12-27T10:19:16.219Z,96.30
2022-12-27T10:20:32.146Z,96.30
2022-12-27T10:21:40.710Z,96.30
2022-12-27T10:22:49.626Z,96.30
2022-12-27T10:24:00.829Z,96.30
2022-12-27T10:25:11.807Z,96.30
2022-12-27T10:26:18.606Z,96.30
2022-12-27T10:27:26.175Z,96.30
2022-12-27T10:28:40.162Z,96.30
2022-12-27T10:29:44.248Z,96.30
2022-12-27T10:30:47.951Z,96.30
2022-12-27T10:31:52.548Z,96.30
2022-12-27T10:32:56.367Z,96.30
2022-12-27T10:34:00.424Z,96.30
2022-12-27T10:35:07.542Z,96.30
2022-12-27T10:36:16.733Z,96.30
2022-12-27T10:37:20.248Z,96.30
2022-12-27T10:38:24.750Z,96.30
2022-12-27T10:39:32.354Z,96.30
2022-12-27T10:40:42.958Z,96.30
2022-12-27T10:42:01.225Z,96.30
2022-12-27T10:43:08.524Z,96.30
2022-12-27T10:44:13.465Z,96.30
2022-12-27T10:45:33.684Z,96.30
2022-12-27T10:46:37.724Z,96.30
2022-12-27T10:47:41.997Z,96.30
2022-12-27T10:50:26.459Z,96.30
2022-12-27T10:51:37.023Z,96.30
2022-12-27T10:52:41.625Z,96.30
2022-12-27T10:54:01.548Z,96.30
2022-12-27T10:55:05.390Z,96.30
2022-12-27T10:56:16.056Z,96.30
2022-12-27T10:57:27.069Z,96.30
2022-12-27T10:58:41.196Z,96.30
2022-12-27T10:59:44.948Z,96.30
2022-12-27T11:00:55.447Z,96.30
2022-12-27T11:02:19.608Z,96.30
2022-12-27T11:03:26.268Z,96.30
2022-12-27T11:04:32.431Z,96.30
2022-12-27T11:05:36.071Z,96.30
2022-12-27T11:06:42.485Z,96.30
2022-12-27T11:07:45.260Z,96.30
2022-12-27T11:08:49.541Z,96.30
2022-12-27T11:10:09.836Z,96.30
2022-12-27T11:11:15.821Z,96.30
2022-12-27T11:12:23.962Z,96.30
2022-12-27T11:13:26.643Z,96.30
2022-12-27T11:14:30.572Z,96.30
2022-12-27T11:15:37.219Z,96.30
2022-12-27T11:16:41.830Z,96.30
2022-12-27T11:17:48.579Z,96.30
2022-12-27T11:18:56.881Z,96.30
2022-12-27T11:20:03.395Z,96.30
2022-12-27T11:21:08.902Z,96.30
2022-12-27T11:22:14.190Z,96.30
2022-12-27T11:23:20.687Z,96.30
2022-12-27T11:24:23.866Z,96.30
2022-12-27T11:25:30.625Z,96.30
2022-12-27T11:26:53.723Z,96.30
2022-12-27T11:28:02.568Z,96.30
2022-12-27T11:29:06.903Z,96.30
2022-12-27T11:30:24.895Z,96.30
2022-12-27T11:31:38.494Z,96.30
2022-12-27T11:32:46.855Z,96.30
2022-12-27T11:33:53.566Z,96.30
2022-12-27T11:34:58.484Z,96.30
2022-12-27T11:36:02.087Z,96.30
2022-12-27T11:37:14.490Z,96.30
2022-12-27T11:38:26.213Z,96.30
2022-12-27T11:39:43.359Z,96.30
2022-12-27T11:40:56.201Z,96.30
2022-12-27T11:42:01.409Z,96.30
2022-12-27T11:43:11.066Z,96.30
2022-12-27T11:44:22.617Z,96.30
2022-12-27T11:45:35.455Z,96.30
2022-12-27T11:46:44.562Z,96.30
2022-12-27T11:47:51.138Z,96.30
2022-12-27T11:48:59.130Z,96.30
2022-12-27T11:50:22.373Z,96.30
2022-12-27T11:51:51.969Z,96.30
2022-12-27T11:53:56.227Z,96.30
2022-12-27T11:55:25.195Z,96.30
2022-12-27T11:56:30.797Z,96.30
2022-12-27T11:58:00.587Z,96.30
2022-12-27T11:59:42.180Z,96.30
2022-12-27T12:01:00.433Z,96.30
2022-12-27T12:02:58.698Z,96.30
2022-12-27T12:04:45.659Z,96.30
2022-12-27T12:06:17.061Z,96.30
2022-12-27T12:07:42.681Z,96.30
2022-12-27T12:09:41.936Z,96.30
2022-12-27T12:10:53.969Z,96.30
2022-12-27T12:12:31.347Z,96.30
2022-12-27T12:14:18.256Z,96.30
2022-12-27T12:16:01.575Z,96.30
2022-12-27T12:18:14.894Z,96.30
2022-12-27T12:19:44.904Z,96.30
2022-12-27T12:21:19.622Z,96.30
2022-12-27T12:23:00.382Z,96.30
2022-12-27T12:25:06.581Z,96.30
2022-12-27T12:26:19.993Z,96.30
2022-12-27T12:27:52.921Z,96.30
2022-12-27T12:29:30.120Z,96.30
2022-12-27T12:31:03.677Z,96.30
2022-12-27T12:32:37.289Z,96.30
2022-12-27T12:34:01.260Z,96.30
2022-12-27T12:35:52.876Z,96.30
2022-12-27T12:37:20.634Z,96.30
2022-12-27T12:38:27.921Z,96.30
2022-12-27T12:40:12.643Z,96.30
2022-12-27T12:41:57.052Z,96.30
2022-12-27T12:43:20.057Z,96.30
2022-12-27T12:44:57.757Z,96.30
2022-12-27T12:46:14.992Z,96.30
2022-12-27T12:47:42.592Z,96.30
2022-12-27T12:49:28.303Z,96.30
2022-12-27T12:50:53.229Z,96.30
2022-12-27T12:52:20.252Z,96.30
2022-12-27T12:53:50.337Z,96.30
2022-12-27T12:55:33.388Z,96.30
2022-12-27T12:57:09.730Z,96.30
2022-12-27T12:58:33.002Z,96.30
2022-12-27T13:00:04.641Z,96.30
2022-12-27T13:01:37.723Z,96.30
2022-12-27T13:03:17.261Z,96.30
2022-12-27T13:04:50.412Z,96.30
2022-12-27T13:06:05.741Z,96.30
2022-12-27T13:07:40.922Z,96.30
2022-12-27T13:08:52.172Z,96.30
2022-12-27T13:10:35.664Z,96.30
2022-12-27T13:11:53.220Z,96.30
2022-12-27T13:13:06.927Z,96.30
2022-12-27T13:14:39.855Z,96.30
2022-12-27T13:16:09.261Z,96.30
2022-12-27T13:17:19.477Z,96.30
2022-12-27T13:18:35.050Z,96.30
2022-12-27T13:20:08.060Z,96.30
2022-12-27T13:21:27.262Z,96.30
2022-12-27T13:22:49.736Z,96.30
2022-12-27T13:24:08.515Z,96.30
2022-12-27T13:25:28.290Z,96.30
2022-12-27T13:26:46.917Z,96.30
2022-12-27T13:27:59.307Z,96.30
2022-12-27T13:29:26.596Z,96.30
2022-12-27T13:30:43.540Z,96.30
2022-12-27T13:32:01.461Z,96.30
2022-12-27T13:33:28.064Z,96.30
2022-12-27T13:34:46.849Z,96.30
2022-12-27T13:36:18.392Z,96.30
2022-12-27T13:37:41.338Z,96.30
2022-12-27T13:39:28.021Z,96.30
2022-12-27T13:41:01.338Z,96.30
2022-12-27T13:42:45.790Z,96.30
2022-12-27T13:44:18.350Z,96.30
2022-12-27T13:45:44.963Z,96.30
2022-12-27T13:47:08.929Z,96.30
2022-12-27T13:50:40.374Z,96.30
2022-12-27T13:51:47.900Z,96.30
2022-12-27T13:53:14.132Z,96.30
2022-12-27T13:54:57.154Z,96.30
2022-12-27T13:56:51.437Z,96.30
2022-12-27T13:58:14.041Z,96.30
2022-12-27T14:00:05.374Z,96.30
2022-12-27T14:01:43.452Z,96.30
2022-12-27T14:03:31.012Z,96.30
2022-12-27T14:05:16.919Z,96.30
2022-12-27T14:06:54.015Z,96.30
2022-12-27T14:08:05.407Z,96.30
2022-12-27T14:10:00.532Z,96.30
2022-12-27T14:11:13.856Z,96.30
2022-12-27T14:13:11.465Z,96.30
2022-12-27T14:14:19.451Z,96.30
2022-12-27T14:15:28.862Z,96.30
2022-12-27T14:16:52.127Z,96.30
2022-12-27T14:18:20.623Z,96.30
2022-12-27T14:20:03.418Z,96.30
2022-12-27T14:21:30.092Z,96.30
2022-12-27T14:23:25.159Z,96.30
2022-12-27T14:25:14.135Z,96.30
2022-12-27T14:27:11.155Z,96.30
2022-12-27T14:29:15.474Z,96.30
2022-12-27T14:31:15.181Z,96.30
2022-12-27T14:33:39.879Z,96.30
2022-12-27T14:35:24.071Z,96.30
2022-12-27T14:37:30.492Z,96.30
2022-12-27T14:39:25.580Z,96.30
2022-12-27T14:41:09.359Z,96.30
2022-12-27T14:42:56.625Z,96.30
2022-12-27T14:44:55.923Z,96.30
2022-12-27T14:46:45.109Z,96.30
2022-12-27T14:48:39.461Z,96.30
2022-12-27T14:50:56.662Z,96.30
2022-12-27T14:52:48.234Z,96.30
2022-12-27T14:54:46.993Z,96.30
2022-12-27T14:56:04.784Z,96.30
2022-12-27T14:57:22.064Z,96.30
2022-12-27T14:58:55.351Z,96.30
2022-12-27T15:00:12.364Z,96.30
2022-12-27T15:01:33.120Z,96.30
2022-12-27T15:03:12.167Z,96.30
2022-12-27T15:04:44.470Z,96.30
2022-12-27T15:06:05.864Z,96.30
2022-12-27T15:07:47.174Z,96.30
2022-12-27T15:09:07.914Z,96.30
2022-12-27T15:10:28.518Z,96.30
2022-12-27T15:12:06.628Z,96.30
2022-12-27T15:13:20.435Z,96.30
2022-12-27T15:14:42.305Z,96.30
2022-12-27T15:16:02.086Z,96.30
2022-12-27T15:17:21.151Z,96.30
2022-12-27T15:18:49.237Z,96.30
2022-12-27T15:20:49.422Z,96.30
2022-12-27T15:22:05.063Z,96.30
2022-12-27T15:23:22.730Z,96.30
2022-12-27T15:24:51.035Z,96.30
2022-12-27T15:26:10.583Z,96.30
2022-12-27T15:27:26.795Z,96.30
2022-12-27T15:28:47.855Z,96.30
2022-12-27T15:30:21.556Z,96.30
2022-12-27T15:31:35.987Z,96.30
2022-12-27T15:32:53.414Z,96.30
2022-12-27T15:34:21.061Z,96.30
2022-12-27T15:35:57.620Z,96.30
2022-12-27T15:37:01.169Z,96.30
2022-12-27T15:38:12.500Z,96.30
2022-12-27T15:39:49.117Z,96.30
2022-12-27T15:41:35.471Z,96.30
2022-12-27T15:42:53.746Z,96.30
2022-12-27T15:44:36.462Z,96.30
2022-12-27T15:45:54.598Z,96.30
2022-12-27T15:47:27.319Z,96.30
2022-12-27T15:49:21.452Z,96.30
2022-12-27T15:50:40.315Z,96.30
2022-12-27T15:51:54.935Z,96.30
2022-12-27T15:53:39.336Z,96.30
2022-12-27T15:55:21.703Z,96.30